Wentworth, Wisconsin
Current Conditions -  °F | °C
As of 1:55 PM on Sunday 21 Dec 2014 (Local Time) from KSUW Reporting Station
Unknown Precip Unknown Precip  
Wind Chill: 32°   Ceiling: 1400
Heat Index: 32°   Visibility: 1.5mi
Dew Point: 32°   Wind: 3mph
Humidity: 100%   Direction: 70°ENE
Pressure: 29.8"   Gusts: NA
Location:  46.578°N, 91.9335°W
Report Text: KSUW 211955Z AUTO 07003KT 1 1/2SM UP OVC014 00/00 A2980 RMK AO2 T00000000
Loading
Personal Weather Stations






























Interactive Weather Map New forecast layout! Learn more

10-Day Weather Forecast

Advertisements
Track Severe Weather on mobile